createdAt,value
2023-02-12T00:01:25.309Z,150.13
2023-02-12T00:03:53.652Z,151.85
2023-02-12T00:06:23.645Z,260.40
2023-02-12T00:08:53.915Z,280.52
2023-02-12T00:11:31.202Z,328.33
2023-02-12T00:13:59.949Z,290.58
2023-02-12T00:16:30.273Z,283.17
2023-02-12T00:18:59.561Z,293.50
2023-02-12T00:21:28.460Z,260.13
2023-02-12T00:23:57.382Z,265.40
2023-02-12T00:26:25.972Z,249.38
2023-02-12T00:28:55.155Z,237.95
2023-02-12T00:31:27.064Z,179.18
2023-02-12T00:33:58.241Z,205.85
2023-02-12T00:36:32.040Z,371.08
2023-02-12T00:39:01.152Z,376.23
2023-02-12T00:41:30.084Z,342.20
2023-02-12T00:43:58.502Z,260.42
2023-02-12T00:46:26.714Z,330.90
2023-02-12T00:48:55.100Z,366.77
2023-02-12T00:51:23.570Z,287.90
2023-02-12T00:53:51.922Z,303.30
2023-02-12T00:56:20.129Z,236.25
2023-02-12T00:58:50.578Z,194.00
2023-02-12T01:01:19.587Z,134.15
2023-02-12T01:03:47.776Z,128.82
2023-02-12T01:06:16.242Z,154.32
2023-02-12T01:08:44.559Z,129.05
2023-02-12T01:11:14.050Z,113.60
2023-02-12T01:13:42.264Z,119.22
2023-02-12T01:16:22.830Z,124.45
2023-02-12T01:18:55.480Z,123.22
2023-02-12T01:21:27.344Z,132.27
2023-02-12T01:23:56.188Z,123.05
2023-02-12T01:26:26.076Z,125.18
2023-02-12T01:28:59.992Z,140.85
2023-02-12T01:31:30.984Z,162.88
2023-02-12T01:34:01.285Z,144.77
2023-02-12T01:36:30.751Z,170.57
2023-02-12T01:38:59.331Z,148.77
2023-02-12T01:41:37.050Z,135.45
2023-02-12T01:44:24.018Z,156.38
2023-02-12T01:47:03.472Z,179.02
2023-02-12T01:49:40.962Z,204.00
2023-02-12T01:52:18.765Z,195.02
2023-02-12T01:54:49.981Z,188.20
2023-02-12T01:57:19.559Z,206.18
2023-02-12T01:59:51.171Z,220.35
2023-02-12T02:02:19.439Z,193.80
2023-02-12T02:04:58.055Z,195.50
2023-02-12T02:07:26.701Z,191.38
2023-02-12T02:09:56.371Z,193.13
2023-02-12T02:12:26.130Z,196.45
2023-02-12T02:15:01.182Z,181.05
2023-02-12T02:17:37.631Z,165.30
2023-02-12T02:20:42.243Z,170.00
2023-02-12T02:23:21.239Z,148.55
2023-02-12T02:26:18.467Z,145.60
2023-02-12T02:28:49.825Z,135.27
2023-02-12T02:31:18.013Z,151.95
2023-02-12T02:33:56.806Z,187.80
2023-02-12T02:37:00.037Z,168.95
2023-02-12T02:39:47.170Z,151.25
2023-02-12T02:42:38.558Z,156.25
2023-02-12T02:45:17.200Z,117.65
2023-02-12T02:48:00.832Z,129.10
2023-02-12T02:50:31.255Z,163.15
2023-02-12T02:53:09.549Z,135.02
2023-02-12T02:55:41.579Z,142.18
2023-02-12T02:58:24.399Z,130.45
2023-02-12T03:01:05.103Z,102.55
2023-02-12T03:03:43.610Z,108.05
2023-02-12T03:06:23.506Z,83.00
2023-02-12T03:08:59.537Z,96.68
2023-02-12T03:11:34.018Z,105.53
2023-02-12T03:14:08.655Z,109.60
2023-02-12T03:16:43.682Z,92.82
2023-02-12T03:19:18.918Z,114.30
2023-02-12T03:22:02.760Z,99.47
2023-02-12T03:26:48.230Z,75.45
2023-02-12T03:29:16.574Z,89.80
2023-02-12T03:32:17.232Z,82.78
2023-02-12T03:34:56.292Z,81.78
2023-02-12T03:37:33.149Z,64.35
2023-02-12T03:40:10.443Z,76.55
2023-02-12T03:42:58.866Z,65.70
2023-02-12T03:45:52.687Z,76.97
2023-02-12T03:48:46.109Z,95.28
2023-02-12T03:51:27.507Z,91.07
2023-02-12T03:53:57.784Z,83.45
2023-02-12T03:56:49.301Z,75.18
2023-02-12T03:59:17.903Z,110.17
2023-02-12T04:01:46.842Z,117.65
2023-02-12T04:04:15.679Z,151.32
2023-02-12T04:06:46.359Z,166.05
2023-02-12T04:09:15.565Z,130.43
2023-02-12T04:12:21.973Z,206.93
2023-02-12T04:14:50.215Z,189.18
2023-02-12T04:17:36.762Z,172.95
2023-02-12T04:20:49.572Z,154.93
2023-02-12T04:23:23.729Z,212.65
2023-02-12T04:26:13.645Z,186.73
2023-02-12T04:29:00.299Z,176.43
2023-02-12T04:31:43.034Z,115.80
2023-02-12T04:34:32.964Z,95.07
2023-02-12T04:37:10.453Z,87.82
2023-02-12T04:39:41.618Z,107.03
2023-02-12T04:42:10.493Z,119.55
2023-02-12T04:44:41.292Z,175.73
2023-02-12T04:47:12.664Z,158.18
2023-02-12T04:49:41.167Z,156.73
2023-02-12T04:52:10.190Z,99.47
2023-02-12T04:54:38.569Z,85.30
2023-02-12T04:57:06.816Z,97.60
2023-02-12T04:59:35.071Z,84.78
2023-02-12T05:02:03.439Z,87.18
2023-02-12T05:04:31.612Z,93.55
2023-02-12T05:06:59.762Z,90.28
2023-02-12T05:09:28.012Z,81.60
2023-02-12T05:11:56.330Z,85.88
2023-02-12T05:14:27.633Z,97.32
2023-02-12T05:16:56.007Z,115.93
2023-02-12T05:19:24.258Z,101.75
2023-02-12T05:21:52.790Z,87.35
2023-02-12T05:24:20.940Z,81.47
2023-02-12T05:26:50.753Z,113.38
2023-02-12T05:29:19.083Z,134.27
2023-02-12T05:31:47.637Z,135.77
2023-02-12T05:34:15.935Z,139.88
2023-02-12T05:36:47.447Z,124.40
2023-02-12T05:39:15.725Z,166.82
2023-02-12T05:41:44.040Z,140.45
2023-02-12T05:44:12.582Z,93.82
2023-02-12T05:46:41.029Z,80.80
2023-02-12T05:49:10.231Z,89.95
2023-02-12T05:51:39.368Z,88.57
2023-02-12T05:54:08.334Z,100.00
2023-02-12T05:56:44.956Z,82.60
2023-02-12T05:59:21.839Z,103.63
2023-02-12T06:01:51.595Z,95.13
2023-02-12T06:04:23.283Z,100.72
2023-02-12T06:06:55.489Z,87.18
2023-02-12T06:11:52.101Z,87.15
2023-02-12T06:14:21.524Z,104.72
2023-02-12T06:16:51.834Z,88.82
2023-02-12T06:19:21.284Z,92.88
2023-02-12T06:21:49.766Z,113.82
2023-02-12T06:24:18.388Z,101.38
2023-02-12T06:26:49.869Z,90.03
2023-02-12T06:29:19.355Z,87.10
2023-02-12T06:31:47.809Z,84.38
2023-02-12T06:34:16.689Z,91.07
2023-02-12T06:36:46.212Z,96.07
2023-02-12T06:39:16.344Z,93.82
2023-02-12T06:41:45.160Z,85.07
2023-02-12T06:44:14.004Z,100.38
2023-02-12T06:46:42.567Z,91.88
2023-02-12T06:49:13.664Z,91.57
2023-02-12T06:51:42.544Z,106.85
2023-02-12T06:54:15.934Z,102.20
2023-02-12T06:56:44.658Z,98.07
2023-02-12T06:59:17.445Z,113.07
2023-02-12T07:01:45.972Z,94.85
2023-02-12T07:04:14.695Z,103.30
2023-02-12T07:06:43.086Z,100.85
2023-02-12T07:09:11.211Z,100.97
2023-02-12T07:11:39.488Z,98.90
2023-02-12T07:14:08.595Z,100.50
2023-02-12T07:16:36.833Z,105.20
2023-02-12T07:19:05.181Z,99.05
2023-02-12T07:21:33.421Z,95.47
2023-02-12T07:24:01.636Z,91.60
2023-02-12T07:26:30.043Z,111.10
2023-02-12T07:28:58.442Z,97.45
2023-02-12T07:31:26.970Z,117.35
2023-02-12T07:33:56.856Z,85.82
2023-02-12T07:36:27.264Z,83.40
2023-02-12T07:38:56.360Z,100.55
2023-02-12T07:41:30.680Z,89.63
2023-02-12T07:44:01.748Z,102.45
2023-02-12T07:46:32.698Z,93.35
2023-02-12T07:49:02.583Z,94.30
2023-02-12T07:51:31.782Z,92.32
2023-02-12T07:54:00.480Z,104.57
2023-02-12T07:56:31.025Z,94.35
2023-02-12T07:59:02.229Z,98.22
2023-02-12T08:01:33.458Z,100.75
2023-02-12T08:04:10.695Z,116.72
2023-02-12T08:06:41.910Z,103.57
2023-02-12T08:09:12.296Z,96.05
2023-02-12T08:11:42.422Z,98.13
2023-02-12T08:14:13.605Z,84.05
2023-02-12T08:16:43.344Z,99.45
2023-02-12T08:19:18.984Z,97.78
2023-02-12T08:21:53.358Z,114.65
2023-02-12T08:24:22.284Z,98.03
2023-02-12T08:26:51.060Z,114.78
2023-02-12T08:29:22.400Z,100.85
2023-02-12T08:31:55.230Z,82.60
2023-02-12T08:34:26.178Z,100.88
2023-02-12T08:36:55.809Z,84.75
2023-02-12T08:39:26.303Z,92.80
2023-02-12T08:41:59.575Z,96.15
2023-02-12T08:44:28.084Z,90.78
2023-02-12T08:46:56.328Z,94.63
2023-02-12T08:49:27.706Z,87.13
2023-02-12T08:51:57.989Z,82.43
2023-02-12T08:54:29.835Z,92.88
2023-02-12T08:56:59.855Z,89.53
2023-02-12T08:59:29.047Z,66.85
2023-02-12T09:01:57.573Z,60.13
2023-02-12T09:04:28.711Z,77.18
2023-02-12T09:06:57.728Z,72.90
2023-02-12T09:09:25.913Z,67.30
2023-02-12T09:11:54.092Z,61.35
2023-02-12T09:14:22.383Z,82.10
2023-02-12T09:16:51.279Z,90.93
2023-02-12T09:19:19.852Z,67.88
2023-02-12T09:21:58.099Z,74.00
2023-02-12T09:24:27.326Z,66.00
2023-02-12T09:26:55.657Z,72.93
2023-02-12T09:29:23.906Z,90.70
2023-02-12T09:31:52.357Z,81.50
2023-02-12T09:34:20.742Z,80.57
2023-02-12T09:36:49.180Z,83.38
2023-02-12T09:39:17.293Z,84.80
2023-02-12T09:42:07.172Z,70.40
2023-02-12T09:44:52.622Z,70.28
2023-02-12T09:47:39.005Z,87.68
2023-02-12T09:50:24.828Z,85.45
2023-02-12T09:52:54.489Z,76.10
2023-02-12T09:55:27.858Z,79.97
2023-02-12T09:57:56.426Z,89.70
2023-02-12T10:00:32.141Z,86.15
2023-02-12T10:03:06.122Z,70.18
2023-02-12T10:05:51.955Z,69.90
2023-02-12T10:08:38.623Z,77.57
2023-02-12T10:11:15.916Z,75.78
2023-02-12T10:13:47.176Z,72.93
2023-02-12T10:16:50.024Z,93.67
2023-02-12T10:19:36.667Z,74.40
2023-02-12T10:22:40.814Z,55.95
2023-02-12T10:25:44.540Z,79.05
2023-02-12T10:28:17.239Z,68.63
2023-02-12T10:30:52.205Z,50.17
2023-02-12T10:33:46.325Z,61.92
2023-02-12T10:36:36.061Z,62.38
2023-02-12T10:39:12.371Z,58.00
2023-02-12T10:42:08.661Z,57.67
2023-02-12T10:44:36.916Z,63.65
2023-02-12T10:47:05.089Z,68.53
2023-02-12T10:49:34.207Z,49.00
2023-02-12T10:52:33.543Z,49.08
2023-02-12T10:55:01.877Z,46.55
2023-02-12T10:57:39.302Z,44.90
2023-02-12T11:00:32.416Z,43.88
2023-02-12T11:03:14.504Z,39.20
2023-02-12T11:05:44.711Z,45.58
2023-02-12T11:08:31.017Z,47.05
2023-02-12T11:11:15.167Z,63.80
2023-02-12T11:13:55.162Z,44.50
2023-02-12T11:16:32.781Z,45.00
2023-02-12T11:19:09.611Z,59.35
2023-02-12T11:21:38.088Z,52.85
2023-02-12T11:24:29.948Z,48.90
2023-02-12T11:27:17.875Z,51.88
2023-02-12T11:29:48.087Z,49.83
2023-02-12T11:32:19.636Z,52.90
2023-02-12T11:35:18.409Z,43.55
2023-02-12T11:37:47.876Z,49.63
2023-02-12T11:40:33.970Z,47.05
2023-02-12T11:43:06.386Z,40.97
2023-02-12T11:45:48.357Z,44.05
2023-02-12T11:48:36.235Z,49.28
2023-02-12T11:51:07.969Z,41.22
2023-02-12T11:53:47.848Z,44.67
2023-02-12T11:56:16.797Z,48.55
2023-02-12T11:58:50.396Z,37.55
2023-02-12T12:01:37.767Z,47.55
2023-02-12T12:04:20.040Z,47.10
2023-02-12T12:06:57.293Z,55.92
2023-02-12T12:09:33.431Z,47.28
2023-02-12T12:12:07.648Z,47.33
2023-02-12T12:14:53.795Z,47.63
2023-02-12T12:17:27.606Z,38.58
2023-02-12T12:20:10.414Z,56.20
2023-02-12T12:23:01.344Z,42.60
2023-02-12T12:25:49.915Z,44.78
2023-02-12T12:29:02.033Z,42.63
2023-02-12T12:31:37.949Z,39.00
2023-02-12T12:34:27.762Z,52.63
2023-02-12T12:37:11.267Z,40.63
2023-02-12T12:39:54.576Z,40.53
2023-02-12T12:42:28.313Z,36.08
2023-02-12T12:45:27.629Z,45.58
2023-02-12T12:48:17.273Z,49.97
2023-02-12T12:51:24.691Z,41.72
2023-02-12T12:54:01.537Z,56.92
2023-02-12T12:56:50.072Z,35.50
2023-02-12T12:59:47.274Z,47.72
2023-02-12T13:02:36.884Z,43.60
2023-02-12T13:05:48.509Z,45.15
2023-02-12T13:08:26.928Z,41.47
2023-02-12T13:11:05.430Z,49.17
2023-02-12T13:14:08.853Z,37.95
2023-02-12T13:16:50.365Z,48.70
2023-02-12T13:19:33.684Z,42.75
2023-02-12T13:22:18.981Z,40.00
2023-02-12T13:25:22.849Z,49.80
2023-02-12T13:27:52.661Z,45.53
2023-02-12T13:30:23.405Z,37.60
2023-02-12T13:33:08.986Z,47.70
2023-02-12T13:35:42.429Z,44.80
2023-02-12T13:38:34.051Z,49.38
2023-02-12T13:41:08.600Z,60.90
2023-02-12T13:43:50.319Z,56.33
2023-02-12T13:46:49.127Z,52.72
2023-02-12T13:49:33.217Z,51.25
2023-02-12T13:52:07.097Z,47.00
2023-02-12T13:54:56.461Z,46.63
2023-02-12T13:57:24.788Z,46.83
2023-02-12T13:59:56.597Z,44.30
2023-02-12T14:05:05.302Z,49.33
2023-02-12T14:07:46.162Z,48.60
2023-02-12T14:10:25.349Z,38.78
2023-02-12T14:12:57.465Z,52.28
2023-02-12T14:15:42.441Z,54.00
2023-02-12T14:18:35.720Z,41.60
2023-02-12T14:21:13.052Z,52.90
2023-02-12T14:23:43.008Z,42.45
2023-02-12T14:26:23.556Z,41.47
2023-02-12T14:28:59.747Z,47.28
2023-02-12T14:31:28.075Z,44.15
2023-02-12T14:34:08.389Z,43.20
2023-02-12T14:36:38.499Z,40.90
2023-02-12T14:39:22.154Z,32.63
2023-02-12T14:42:11.665Z,34.72
2023-02-12T14:44:55.516Z,49.35
2023-02-12T14:47:32.680Z,31.15
2023-02-12T14:50:12.225Z,46.08
2023-02-12T14:52:44.476Z,40.47
2023-02-12T14:55:29.332Z,35.20
2023-02-12T14:58:04.269Z,45.40
2023-02-12T15:00:37.181Z,35.72
2023-02-12T15:03:20.657Z,55.78
2023-02-12T15:06:19.662Z,48.03
2023-02-12T15:09:02.627Z,42.10
2023-02-12T15:11:54.854Z,39.08
2023-02-12T15:14:32.521Z,42.78
2023-02-12T15:17:12.492Z,39.28
2023-02-12T15:20:02.240Z,43.95
2023-02-12T15:22:56.701Z,45.08
2023-02-12T15:25:29.580Z,51.30
2023-02-12T15:28:30.275Z,40.63
2023-02-12T15:31:07.115Z,43.30
2023-02-12T15:33:38.110Z,31.27
2023-02-12T15:36:10.369Z,40.13
2023-02-12T15:38:41.417Z,24.98
2023-02-12T15:41:23.938Z,38.47
2023-02-12T15:43:52.155Z,40.10
2023-02-12T15:46:20.297Z,54.55
2023-02-12T15:48:48.688Z,47.60
2023-02-12T15:51:19.980Z,40.15
2023-02-12T15:53:48.787Z,47.05
2023-02-12T15:56:21.078Z,35.13
2023-02-12T15:58:58.177Z,25.77
2023-02-12T16:01:32.001Z,32.90
2023-02-12T16:04:06.734Z,31.63
2023-02-12T16:06:37.000Z,34.30
2023-02-12T16:09:28.325Z,36.20
2023-02-12T16:11:58.464Z,36.90
2023-02-12T16:14:50.270Z,24.95
2023-02-12T16:17:35.779Z,32.30
2023-02-12T16:20:17.732Z,40.15
2023-02-12T16:25:18.226Z,27.35
2023-02-12T16:28:02.833Z,27.70
2023-02-12T16:30:39.430Z,26.65
2023-02-12T16:33:36.797Z,26.15
2023-02-12T16:36:15.837Z,23.60
2023-02-12T16:39:04.914Z,30.08
2023-02-12T16:41:35.973Z,29.13
2023-02-12T16:44:04.175Z,42.00
2023-02-12T16:46:35.015Z,42.72
2023-02-12T16:49:03.753Z,24.50
2023-02-12T16:51:34.655Z,21.60
2023-02-12T16:54:05.540Z,32.00
2023-02-12T16:56:37.860Z,31.95
2023-02-12T16:59:06.134Z,38.83
2023-02-12T17:01:38.215Z,30.80
2023-02-12T17:04:09.136Z,27.48
2023-02-12T17:06:37.395Z,30.33
2023-02-12T17:09:05.782Z,22.35
2023-02-12T17:11:34.071Z,27.70
2023-02-12T17:14:02.324Z,29.40
2023-02-12T17:16:32.124Z,28.95
2023-02-12T17:19:01.338Z,19.80
2023-02-12T17:21:38.337Z,24.92
2023-02-12T17:24:22.684Z,29.50
2023-02-12T17:26:52.056Z,25.02
2023-02-12T17:29:22.928Z,26.63
2023-02-12T17:31:52.246Z,44.83
2023-02-12T17:34:21.546Z,23.95
2023-02-12T17:36:50.247Z,25.05
2023-02-12T17:39:19.530Z,35.50
2023-02-12T17:41:47.946Z,29.23
2023-02-12T17:44:16.220Z,22.00
2023-02-12T17:46:44.541Z,28.33
2023-02-12T17:49:12.714Z,27.48
2023-02-12T17:51:40.951Z,30.00
2023-02-12T17:54:09.203Z,39.42
2023-02-12T17:56:37.478Z,42.15
2023-02-12T17:59:05.627Z,40.33
2023-02-12T18:01:34.073Z,29.88
2023-02-12T18:04:02.241Z,29.88
2023-02-12T18:06:31.623Z,23.15
2023-02-12T18:09:00.549Z,28.13
2023-02-12T18:11:29.389Z,24.02
2023-02-12T18:13:58.653Z,34.10
2023-02-12T18:16:29.851Z,54.67
2023-02-12T18:18:58.106Z,46.33
2023-02-12T18:21:26.395Z,37.50
2023-02-12T18:23:55.256Z,34.30
2023-02-12T18:26:24.256Z,31.50
2023-02-12T18:28:52.656Z,26.67
2023-02-12T18:31:21.587Z,42.80
2023-02-12T18:33:50.228Z,31.52
2023-02-12T18:36:20.326Z,44.85
2023-02-12T18:38:50.350Z,26.15
2023-02-12T18:41:27.216Z,36.13
2023-02-12T18:43:56.865Z,29.83
2023-02-12T18:46:30.729Z,41.47
2023-02-12T18:48:59.654Z,48.00
2023-02-12T18:51:30.622Z,45.00
2023-02-12T18:54:01.026Z,117.53
2023-02-12T18:56:35.413Z,117.25
2023-02-12T18:59:05.828Z,55.80
2023-02-12T19:01:36.156Z,59.08
2023-02-12T19:04:08.975Z,48.15
2023-02-12T19:06:44.045Z,33.65
2023-02-12T19:09:13.648Z,49.10
2023-02-12T19:11:41.890Z,63.28
2023-02-12T19:14:10.276Z,37.08
2023-02-12T19:19:31.342Z,113.93
2023-02-12T19:21:59.646Z,282.00
2023-02-12T19:24:40.875Z,373.88
2023-02-12T19:27:13.008Z,386.05
2023-02-12T19:29:41.180Z,340.17
2023-02-12T19:32:10.803Z,430.83
2023-02-12T19:34:39.207Z,629.25
2023-02-12T19:37:07.501Z,131.85
2023-02-12T19:39:35.767Z,139.45
2023-02-12T19:42:04.264Z,121.93
2023-02-12T19:44:32.791Z,540.08
2023-02-12T19:47:00.999Z,480.08
2023-02-12T19:49:29.961Z,257.15
2023-02-12T19:51:58.267Z,627.50
2023-02-12T19:54:26.544Z,396.27
2023-02-12T19:56:55.544Z,165.35
2023-02-12T19:59:25.428Z,131.40
2023-02-12T20:01:54.332Z,437.30
2023-02-12T20:04:24.183Z,171.02
2023-02-12T20:06:52.734Z,375.45
2023-02-12T20:09:23.015Z,160.18
2023-02-12T20:11:51.609Z,161.25
2023-02-12T20:14:20.778Z,435.35
2023-02-12T20:16:50.146Z,197.55
2023-02-12T20:19:22.588Z,131.95
2023-02-12T20:21:51.808Z,232.10
2023-02-12T20:24:20.684Z,156.68
2023-02-12T20:26:49.313Z,149.90
2023-02-12T20:29:17.477Z,145.32
2023-02-12T20:31:46.027Z,121.35
2023-02-12T20:34:16.212Z,82.30
2023-02-12T20:36:45.874Z,86.95
2023-02-12T20:39:20.226Z,58.85
2023-02-12T20:41:49.242Z,89.72
2023-02-12T20:44:20.120Z,101.70
2023-02-12T20:46:52.555Z,78.72
2023-02-12T20:49:24.989Z,64.38
2023-02-12T20:51:53.351Z,78.50
2023-02-12T20:54:21.656Z,114.10
2023-02-12T20:56:50.493Z,136.45
2023-02-12T20:59:19.209Z,112.95
2023-02-12T21:01:47.958Z,89.25
2023-02-12T21:04:18.393Z,74.35
2023-02-12T21:06:46.678Z,165.73
2023-02-12T21:09:16.220Z,102.82
2023-02-12T21:11:44.909Z,116.63
2023-02-12T21:14:22.014Z,70.22
2023-02-12T21:16:52.597Z,63.65
2023-02-12T21:19:21.035Z,90.85
2023-02-12T21:21:49.411Z,67.07
2023-02-12T21:24:20.803Z,55.38
2023-02-12T21:26:50.121Z,45.15
2023-02-12T21:29:19.142Z,66.15
2023-02-12T21:31:49.797Z,106.25
2023-02-12T21:34:23.295Z,93.07
2023-02-12T21:36:53.518Z,100.80
2023-02-12T21:39:25.646Z,81.25
2023-02-12T21:44:27.658Z,65.00
2023-02-12T21:46:56.579Z,54.97
2023-02-12T21:49:25.520Z,67.57
2023-02-12T21:51:56.360Z,67.38
2023-02-12T21:54:25.220Z,97.13
2023-02-12T21:56:53.401Z,111.68
2023-02-12T21:59:22.400Z,96.72
2023-02-12T22:01:53.810Z,74.25
2023-02-12T22:04:22.357Z,95.90
2023-02-12T22:06:52.151Z,82.80
2023-02-12T22:09:22.502Z,69.45
2023-02-12T22:11:51.355Z,75.72
2023-02-12T22:14:19.940Z,70.57
2023-02-12T22:16:49.117Z,71.82
2023-02-12T22:19:17.671Z,62.67
2023-02-12T22:21:46.046Z,50.55
2023-02-12T22:24:16.680Z,59.38
2023-02-12T22:26:45.391Z,56.38
2023-02-12T22:29:16.311Z,52.70
2023-02-12T22:31:46.794Z,73.60
2023-02-12T22:34:19.340Z,60.22
2023-02-12T22:36:48.875Z,66.47
2023-02-12T22:39:17.860Z,69.75
2023-02-12T22:41:46.900Z,64.82
2023-02-12T22:44:16.668Z,66.80
2023-02-12T22:46:45.362Z,64.20
2023-02-12T22:49:13.645Z,62.28
2023-02-12T22:51:42.104Z,65.90
2023-02-12T22:54:15.839Z,99.13
2023-02-12T22:56:44.648Z,84.28
2023-02-12T22:59:13.780Z,92.10
2023-02-12T23:01:42.294Z,79.82
2023-02-12T23:04:18.901Z,83.00
2023-02-12T23:06:47.387Z,106.25
2023-02-12T23:09:17.544Z,73.85
2023-02-12T23:11:46.073Z,64.00
2023-02-12T23:14:14.637Z,64.18
2023-02-12T23:16:42.767Z,52.42
2023-02-12T23:19:11.922Z,123.32
2023-02-12T23:21:41.012Z,221.77
2023-02-12T23:24:14.546Z,132.27
2023-02-12T23:26:42.855Z,70.82
2023-02-12T23:29:11.362Z,108.78
2023-02-12T23:31:39.723Z,94.32
2023-02-12T23:34:08.114Z,101.90
2023-02-12T23:36:36.570Z,79.78
2023-02-12T23:39:05.182Z,117.03
2023-02-12T23:41:33.353Z,65.82
2023-02-12T23:44:01.551Z,66.85
2023-02-12T23:46:30.039Z,91.65
2023-02-12T23:48:58.363Z,87.28
2023-02-12T23:51:26.623Z,76.80
2023-02-12T23:53:55.084Z,136.15
2023-02-12T23:56:23.839Z,299.95
2023-02-12T23:58:52.145Z,64.78
